createdAt,value
2023-05-01T04:55:20.081Z,7.20
2023-05-01T05:00:23.897Z,7.40
2023-05-01T05:05:27.512Z,8.00
2023-05-01T05:10:32.528Z,8.90
2023-05-01T05:15:35.942Z,9.20
2023-05-01T05:20:40.571Z,9.30
2023-05-01T05:25:45.430Z,9.40
2023-05-01T05:30:49.206Z,9.60
2023-05-01T05:35:53.322Z,9.60
2023-05-01T05:40:59.463Z,9.80
2023-05-01T05:46:03.182Z,9.90
2023-05-01T05:51:06.856Z,10.00
2023-05-01T05:56:11.713Z,9.90
2023-05-01T06:01:15.129Z,10.00
2023-05-01T06:06:19.208Z,10.20
2023-05-01T06:11:24.190Z,10.30
2023-05-01T06:16:28.006Z,10.40
2023-05-01T06:21:32.304Z,10.60
2023-05-01T06:26:37.393Z,10.90
2023-05-01T06:31:41.035Z,11.20
2023-05-01T06:36:44.779Z,11.40
2023-05-01T06:41:49.552Z,11.60
2023-05-01T06:46:53.250Z,11.70
2023-05-01T06:51:56.950Z,12.00
2023-05-01T06:57:01.811Z,12.10
2023-05-01T07:02:05.205Z,12.30
2023-05-01T07:07:08.714Z,12.40
2023-05-01T07:12:13.533Z,12.60
2023-05-01T07:17:17.408Z,12.60
2023-05-01T07:22:20.844Z,12.70
2023-05-01T07:27:26.097Z,12.80
2023-05-01T07:32:31.380Z,12.90
2023-05-01T07:37:34.973Z,13.10
2023-05-01T07:42:40.304Z,13.20
2023-05-01T07:47:43.810Z,13.40
2023-05-01T07:52:47.382Z,13.60
2023-05-01T07:57:52.194Z,13.60
2023-05-01T08:02:55.771Z,13.70
2023-05-01T08:07:59.434Z,13.80
2023-05-01T08:13:04.493Z,13.90
2023-05-01T08:18:08.000Z,14.10
2023-05-01T08:23:11.555Z,14.20
2023-05-01T08:28:16.599Z,14.40
2023-05-01T08:33:20.350Z,14.40
2023-05-01T08:38:24.038Z,14.50
2023-05-01T08:43:30.888Z,14.60
2023-05-01T08:48:37.842Z,14.70
2023-05-01T08:53:43.223Z,14.70
2023-05-01T08:58:51.092Z,14.80
2023-05-01T09:03:55.895Z,14.90
2023-05-01T09:08:59.858Z,15.00
2023-05-01T09:14:05.541Z,15.20
2023-05-01T09:19:09.073Z,15.40
2023-05-01T09:24:12.911Z,15.40
2023-05-01T09:29:39.198Z,15.50
2023-05-01T09:34:43.660Z,15.70
2023-05-01T09:39:47.161Z,15.90
2023-05-01T09:44:52.238Z,16.00
2023-05-01T09:49:59.719Z,16.20
2023-05-01T09:55:17.046Z,16.30
2023-05-01T10:00:23.614Z,16.40
2023-05-01T10:05:27.247Z,16.60
2023-05-01T10:10:31.223Z,16.60
2023-05-01T10:15:39.105Z,16.60
2023-05-01T10:20:42.894Z,16.60
2023-05-01T10:25:48.556Z,16.80
2023-05-01T10:30:54.940Z,16.90
2023-05-01T10:36:00.857Z,17.10
2023-05-01T10:41:06.299Z,17.20
2023-05-01T10:46:29.884Z,17.40
2023-05-01T10:51:33.428Z,17.50
2023-05-01T10:56:44.284Z,17.70
2023-05-01T11:01:51.959Z,17.70
2023-05-01T11:07:18.927Z,17.90
2023-05-01T11:12:52.213Z,18.10
2023-05-01T11:17:57.561Z,18.20
2023-05-01T11:23:01.124Z,18.30
2023-05-01T11:28:06.718Z,18.60
2023-05-01T11:33:11.719Z,18.70
2023-05-01T11:38:19.749Z,18.90
2023-05-01T11:43:23.534Z,19.10
2023-05-01T11:48:29.577Z,19.40
2023-05-01T11:53:33.033Z,19.50
2023-05-01T11:58:37.072Z,19.70
2023-05-01T12:03:45.392Z,19.80
2023-05-01T12:08:51.780Z,20.00
2023-05-01T12:13:55.891Z,20.20
2023-05-01T12:19:01.029Z,20.40
2023-05-01T12:24:09.639Z,20.50
2023-05-01T12:29:13.805Z,20.60
2023-05-01T12:34:18.975Z,20.80
2023-05-01T12:39:23.577Z,20.90
2023-05-01T12:44:30.773Z,20.90
2023-05-01T12:49:37.407Z,21.10
2023-05-01T12:54:44.568Z,21.40
2023-05-01T12:59:49.549Z,21.70
2023-05-01T13:05:06.334Z,21.80
2023-05-01T13:10:10.666Z,22.10
2023-05-01T13:15:21.605Z,22.40
2023-05-01T13:20:28.659Z,22.50
2023-05-01T13:25:32.496Z,22.90
2023-05-01T13:30:36.811Z,23.30
2023-05-01T13:35:41.743Z,23.60
2023-05-01T13:40:45.563Z,23.90
2023-05-01T13:45:49.088Z,24.10
2023-05-01T13:50:54.364Z,24.50
2023-05-01T13:55:57.851Z,24.70
2023-05-01T14:01:01.476Z,25.00
2023-05-01T14:06:07.206Z,25.20
2023-05-01T14:11:12.630Z,25.50
2023-05-01T14:16:25.098Z,25.80
2023-05-01T14:21:30.232Z,26.60
2023-05-01T14:26:35.275Z,28.00
2023-05-01T14:31:40.656Z,29.60
2023-05-01T14:36:45.590Z,31.90
2023-05-01T14:41:49.259Z,34.50
2023-05-01T14:46:53.591Z,36.20
2023-05-01T14:51:58.710Z,37.40
2023-05-01T14:57:06.294Z,37.80
2023-05-01T15:02:09.972Z,36.80
2023-05-01T15:07:15.239Z,34.80
2023-05-01T15:12:20.548Z,33.10
2023-05-01T15:17:24.370Z,31.80
2023-05-01T15:22:29.360Z,30.70
2023-05-01T15:27:32.845Z,29.80
2023-05-01T15:32:36.483Z,29.10
2023-05-01T15:37:41.668Z,28.60
2023-05-01T15:42:45.566Z,28.20
2023-05-01T15:47:49.288Z,27.80
2023-05-01T15:52:54.439Z,27.50
2023-05-01T15:57:57.914Z,27.30
2023-05-01T16:03:03.158Z,27.20
2023-05-01T16:08:08.510Z,27.30
2023-05-01T16:13:12.048Z,27.80
2023-05-01T16:18:20.901Z,29.30
2023-05-01T16:23:26.504Z,31.20
2023-05-01T16:28:30.089Z,32.80
2023-05-01T16:33:35.793Z,33.60
2023-05-01T16:38:40.576Z,33.00
2023-05-01T16:43:44.143Z,32.70
2023-05-01T16:48:47.847Z,32.30
2023-05-01T16:53:52.701Z,31.90
2023-05-01T16:58:56.379Z,31.50
2023-05-01T17:03:59.852Z,30.00
2023-05-01T17:09:04.924Z,29.00
2023-05-01T17:14:08.347Z,28.30
2023-05-01T17:19:12.605Z,27.50
2023-05-01T17:24:17.647Z,26.80
2023-05-01T17:29:21.112Z,26.20
2023-05-01T17:34:24.789Z,25.60
2023-05-01T17:39:29.571Z,25.00
2023-05-01T17:44:33.715Z,24.60
2023-05-01T17:49:37.266Z,24.20
2023-05-01T17:54:42.280Z,23.80
2023-05-01T17:59:45.935Z,23.50
2023-05-01T18:04:50.308Z,23.20
2023-05-01T18:09:55.369Z,22.80
2023-05-01T18:15:01.706Z,22.60
2023-05-01T18:20:06.387Z,22.30
2023-05-01T18:25:11.470Z,22.10
2023-05-01T18:30:15.309Z,21.80
2023-05-01T18:35:19.191Z,21.60
2023-05-01T18:40:24.543Z,21.50
2023-05-01T18:45:28.097Z,21.20
2023-05-01T18:50:31.917Z,21.10
2023-05-01T18:55:36.730Z,21.00
2023-05-01T19:00:40.547Z,20.90
2023-05-01T19:05:44.043Z,20.80
2023-05-01T19:10:48.861Z,20.70
2023-05-01T19:15:53.522Z,20.50
2023-05-01T19:20:57.587Z,20.30
2023-05-01T19:26:02.432Z,20.20
2023-05-01T19:31:07.687Z,20.00
2023-05-01T19:36:11.242Z,19.90
2023-05-01T19:41:16.069Z,19.80
2023-05-01T19:46:19.815Z,19.70
2023-05-01T19:51:23.526Z,19.40
2023-05-01T19:56:28.597Z,19.30
2023-05-01T20:01:32.508Z,19.10
2023-05-01T20:06:36.013Z,19.00
2023-05-01T20:11:41.021Z,18.80
2023-05-01T20:16:44.755Z,18.40
2023-05-01T20:21:49.211Z,18.30
2023-05-01T20:26:55.839Z,18.10
2023-05-01T20:32:00.383Z,17.90
2023-05-01T20:37:04.036Z,17.90
2023-05-01T20:42:08.828Z,17.80
2023-05-01T20:47:13.704Z,17.80
2023-05-01T20:52:17.196Z,17.90
2023-05-01T20:57:22.311Z,17.80
2023-05-01T21:02:25.825Z,17.70
2023-05-01T21:07:30.557Z,17.80
2023-05-01T21:12:35.356Z,17.80
2023-05-01T21:17:41.320Z,17.80
2023-05-01T21:22:46.275Z,17.80
2023-05-01T21:27:51.716Z,17.80
2023-05-01T21:32:55.933Z,17.70
2023-05-01T21:37:59.642Z,17.70
2023-05-01T21:43:06.173Z,17.70
2023-05-01T21:48:10.125Z,17.70
2023-05-01T21:53:13.613Z,17.70
2023-05-01T21:58:18.722Z,17.60
2023-05-01T22:03:24.907Z,17.60
2023-05-01T22:08:28.434Z,17.50
2023-05-01T22:13:34.276Z,17.40
2023-05-01T22:18:37.688Z,17.30
2023-05-01T22:23:41.480Z,17.30
2023-05-01T22:28:46.387Z,17.20
